createdAt,value
2019-01-17T00:00:33.506Z,30.23
2019-01-17T00:08:59.525Z,19.80
2019-01-17T00:24:02.787Z,20.53
2019-01-17T00:26:48.774Z,21.77
2019-01-17T00:29:55.752Z,19.27
2019-01-17T00:39:06.249Z,18.73
2019-01-17T00:42:13.182Z,18.87
2019-01-17T00:45:20.157Z,16.70
2019-01-17T00:48:09.587Z,17.73
2019-01-17T00:51:16.542Z,17.10
2019-01-17T00:54:16.221Z,16.80
2019-01-17T00:57:03.816Z,19.97
2019-01-17T01:00:11.037Z,18.33
2019-01-17T01:06:12.712Z,18.83
2019-01-17T01:09:19.795Z,16.97
2019-01-17T01:12:26.802Z,19.27
2019-01-17T01:15:35.300Z,18.57
2019-01-17T01:18:42.265Z,16.37
2019-01-17T01:21:49.214Z,17.47
2019-01-17T01:24:56.166Z,16.77
2019-01-17T01:28:03.183Z,16.17
2019-01-17T01:31:10.184Z,16.43
2019-01-17T01:40:07.159Z,14.90
2019-01-17T01:43:14.352Z,14.00
2019-01-17T01:46:22.833Z,12.77
2019-01-17T01:52:16.408Z,13.40
2019-01-17T01:54:57.466Z,14.53
2019-01-17T01:57:38.936Z,12.60
2019-01-17T02:00:19.711Z,12.97
2019-01-17T02:03:00.309Z,11.47
2019-01-17T02:05:41.670Z,11.97
2019-01-17T02:08:22.268Z,11.63
2019-01-17T02:11:02.998Z,10.70
2019-01-17T02:13:43.584Z,10.57
2019-01-17T02:16:24.596Z,7.60
2019-01-17T02:19:05.418Z,10.67
2019-01-17T02:21:46.244Z,9.80
2019-01-17T02:24:14.638Z,8.87
2019-01-17T02:27:02.396Z,9.20
2019-01-17T02:29:50.136Z,9.10
2019-01-17T02:32:38.128Z,9.00
2019-01-17T02:35:25.887Z,5.27
2019-01-17T02:38:13.903Z,7.43
2019-01-17T02:41:01.651Z,9.03
2019-01-17T02:43:49.665Z,9.17
2019-01-17T02:46:37.404Z,7.93
2019-01-17T02:49:25.176Z,8.77
2019-01-17T02:52:06.013Z,5.20
2019-01-17T02:54:46.983Z,6.10
2019-01-17T02:57:27.529Z,5.30
2019-01-17T03:00:08.519Z,4.87
2019-01-17T03:02:49.064Z,5.90
2019-01-17T03:05:30.097Z,4.37
2019-01-17T03:08:11.281Z,4.53
2019-01-17T03:10:52.093Z,4.90
2019-01-17T03:13:33.057Z,5.53
2019-01-17T03:16:13.829Z,6.17
2019-01-17T03:18:54.886Z,5.03
2019-01-17T03:21:35.609Z,4.83
2019-01-17T03:24:16.677Z,5.60
2019-01-17T03:26:57.137Z,4.97
2019-01-17T03:29:37.548Z,6.87
2019-01-17T03:32:17.963Z,5.40
2019-01-17T03:34:46.696Z,6.93
2019-01-17T03:37:35.981Z,4.10
2019-01-17T03:40:23.776Z,3.77
2019-01-17T03:43:11.558Z,2.53
2019-01-17T03:45:59.300Z,2.80
2019-01-17T03:48:47.136Z,5.97
2019-01-17T03:51:27.992Z,2.93
2019-01-17T03:54:08.548Z,3.60
2019-01-17T03:56:49.368Z,5.00
2019-01-17T03:59:30.418Z,3.27
2019-01-17T04:02:11.161Z,2.70
2019-01-17T04:04:52.060Z,4.53
2019-01-17T04:07:32.837Z,3.47
2019-01-17T04:10:13.773Z,4.47
2019-01-17T04:12:54.749Z,3.10
2019-01-17T04:15:35.335Z,2.63
2019-01-17T04:18:16.120Z,3.50
2019-01-17T04:20:56.592Z,3.00
2019-01-17T04:23:37.421Z,3.93
2019-01-17T04:26:18.393Z,7.93
2019-01-17T04:28:58.989Z,5.43
2019-01-17T04:31:39.606Z,4.87
2019-01-17T04:34:20.474Z,3.33
2019-01-17T04:37:01.376Z,3.57
2019-01-17T04:39:42.255Z,5.13
2019-01-17T04:42:22.961Z,6.00
2019-01-17T04:45:03.538Z,6.90
2019-01-17T04:47:44.537Z,4.40
2019-01-17T04:50:25.260Z,5.00
2019-01-17T04:53:07.625Z,5.83
2019-01-17T04:55:47.858Z,4.00
2019-01-17T04:58:28.701Z,4.90
2019-01-17T05:01:09.993Z,4.60
2019-01-17T05:03:50.624Z,4.07
2019-01-17T05:06:31.576Z,5.73
2019-01-17T05:09:12.561Z,7.90
2019-01-17T05:11:53.147Z,7.63
2019-01-17T05:14:34.009Z,9.73
2019-01-17T05:17:15.049Z,7.47
2019-01-17T05:19:43.716Z,7.83
2019-01-17T05:22:31.456Z,6.93
2019-01-17T05:25:19.226Z,9.90
2019-01-17T05:28:07.785Z,9.90
2019-01-17T05:30:57.670Z,6.73
2019-01-17T05:33:45.436Z,8.30
2019-01-17T05:36:52.602Z,6.77
2019-01-17T05:39:40.342Z,8.50
2019-01-17T05:42:28.610Z,7.70
2019-01-17T05:45:16.524Z,8.90
2019-01-17T05:48:04.361Z,6.00
2019-01-17T05:50:52.092Z,12.80
2019-01-17T05:53:39.847Z,7.77
2019-01-17T05:56:27.608Z,9.03
2019-01-17T05:59:15.362Z,3.93
2019-01-17T06:02:03.224Z,10.40
2019-01-17T06:04:50.964Z,10.87
2019-01-17T06:07:38.788Z,8.47
2019-01-17T06:10:26.564Z,9.80
2019-01-17T06:16:22.897Z,11.70
2019-01-17T06:19:10.635Z,7.80
2019-01-17T06:21:58.415Z,11.87
2019-01-17T06:24:26.858Z,10.00
2019-01-17T06:27:14.620Z,11.40
2019-01-17T06:30:02.394Z,10.97
2019-01-17T06:32:50.231Z,9.43
2019-01-17T06:35:38.088Z,11.97
2019-01-17T06:38:25.828Z,7.03
2019-01-17T06:41:13.599Z,8.93
2019-01-17T06:44:01.349Z,13.20
2019-01-17T06:46:49.119Z,10.50
2019-01-17T06:49:36.896Z,7.17
2019-01-17T06:52:24.703Z,11.03
2019-01-17T06:55:05.841Z,11.13
2019-01-17T06:57:46.995Z,12.73
2019-01-17T07:00:27.652Z,17.57
2019-01-17T07:03:08.512Z,10.30
2019-01-17T07:05:49.449Z,13.43
2019-01-17T07:08:30.339Z,9.07
2019-01-17T07:11:11.242Z,11.07
2019-01-17T07:13:52.116Z,9.50
2019-01-17T07:16:33.239Z,9.97
2019-01-17T07:19:14.056Z,9.67
2019-01-17T07:21:54.560Z,7.80
2019-01-17T07:24:35.026Z,13.07
2019-01-17T07:27:15.820Z,11.50
2019-01-17T07:29:56.649Z,13.73
2019-01-17T07:32:37.465Z,10.90
2019-01-17T07:35:18.578Z,10.57
2019-01-17T07:37:59.289Z,10.63
2019-01-17T07:40:39.909Z,10.00
2019-01-17T07:43:20.160Z,10.97
2019-01-17T07:46:01.366Z,14.50
2019-01-17T07:48:41.757Z,11.50
2019-01-17T07:51:22.916Z,8.80
2019-01-17T07:54:03.513Z,10.20
2019-01-17T07:56:44.257Z,12.17
2019-01-17T07:59:25.204Z,10.87
2019-01-17T08:02:06.071Z,12.57
2019-01-17T08:04:46.950Z,8.53
2019-01-17T08:07:27.609Z,11.93
2019-01-17T08:10:08.378Z,11.10
2019-01-17T08:12:49.180Z,14.67
2019-01-17T08:15:30.437Z,10.30
2019-01-17T08:18:11.025Z,12.93
2019-01-17T08:20:51.913Z,11.13
2019-01-17T08:23:34.753Z,10.10
2019-01-17T08:26:14.187Z,12.23
2019-01-17T08:28:55.561Z,13.27
2019-01-17T08:31:36.245Z,11.07
2019-01-17T08:34:17.099Z,12.33
2019-01-17T08:36:58.157Z,12.83
2019-01-17T08:39:39.278Z,11.43
2019-01-17T08:42:20.257Z,11.53
2019-01-17T08:45:01.009Z,11.27
2019-01-17T08:47:41.973Z,8.90
2019-01-17T08:50:22.664Z,15.80
2019-01-17T08:53:03.984Z,10.07
2019-01-17T08:55:44.423Z,8.47
2019-01-17T08:58:24.937Z,14.93
2019-01-17T09:01:05.520Z,13.37
2019-01-17T09:03:46.332Z,10.57
2019-01-17T09:06:26.934Z,12.93
2019-01-17T09:09:08.161Z,12.57
2019-01-17T09:11:49.165Z,12.33
2019-01-17T09:14:29.788Z,11.93
2019-01-17T09:17:10.685Z,11.87
2019-01-17T09:19:51.591Z,12.03
2019-01-17T09:22:32.511Z,10.50
2019-01-17T09:25:12.890Z,14.07
2019-01-17T09:27:41.398Z,13.47
2019-01-17T09:30:29.265Z,15.97
2019-01-17T09:33:17.386Z,13.20
2019-01-17T09:36:05.151Z,11.67
2019-01-17T09:38:52.942Z,11.63
2019-01-17T09:41:40.730Z,11.60
2019-01-17T09:44:28.491Z,11.97
2019-01-17T09:47:16.249Z,10.60
2019-01-17T09:50:23.314Z,8.40
2019-01-17T09:53:11.081Z,11.23
2019-01-17T09:55:58.873Z,11.33
2019-01-17T09:58:40.180Z,11.83
2019-01-17T10:01:20.581Z,12.60
2019-01-17T10:04:01.181Z,11.37
2019-01-17T10:06:41.928Z,11.17
2019-01-17T10:09:22.890Z,12.53
2019-01-17T10:12:03.874Z,12.47
2019-01-17T10:14:44.724Z,10.03
2019-01-17T10:17:25.137Z,12.10
2019-01-17T10:20:06.009Z,7.80
2019-01-17T10:22:46.197Z,10.67
2019-01-17T10:25:26.588Z,11.53
2019-01-17T10:28:07.073Z,15.03
2019-01-17T10:30:48.162Z,11.67
2019-01-17T10:33:28.762Z,9.77
2019-01-17T10:36:09.329Z,7.83
2019-01-17T10:38:50.208Z,14.53
2019-01-17T10:41:30.880Z,9.77
2019-01-17T10:44:11.217Z,12.23
2019-01-17T10:46:51.855Z,14.67
2019-01-17T10:49:33.465Z,9.77
2019-01-17T10:52:14.425Z,11.17
2019-01-17T10:54:54.990Z,11.50
2019-01-17T10:57:35.669Z,14.80
2019-01-17T11:00:16.687Z,12.33
2019-01-17T11:02:57.506Z,12.77
2019-01-17T11:05:38.674Z,12.53
2019-01-17T11:08:19.575Z,8.73
2019-01-17T11:11:01.480Z,8.33
2019-01-17T11:13:42.129Z,9.07
2019-01-17T11:16:22.780Z,7.37
2019-01-17T11:19:03.851Z,8.87
2019-01-17T11:21:46.801Z,8.87
2019-01-17T11:24:27.653Z,13.73
2019-01-17T11:27:08.405Z,14.43
2019-01-17T11:29:49.507Z,9.23
2019-01-17T11:32:30.256Z,8.37
2019-01-17T11:35:19.719Z,11.57
2019-01-17T11:38:27.098Z,12.43
2019-01-17T11:41:35.590Z,12.27
2019-01-17T11:44:42.654Z,7.03
2019-01-17T11:47:49.753Z,11.93
2019-01-17T11:50:58.226Z,10.63
2019-01-17T11:54:05.317Z,12.30
2019-01-17T11:56:46.316Z,14.23
2019-01-17T11:59:26.994Z,10.77
2019-01-17T12:02:09.281Z,12.53
2019-01-17T12:04:50.318Z,9.80
2019-01-17T12:07:30.786Z,9.77
2019-01-17T12:09:59.192Z,6.40
2019-01-17T12:15:41.894Z,8.53
2019-01-17T12:18:29.635Z,11.97
2019-01-17T12:21:17.398Z,12.13
2019-01-17T12:24:05.204Z,11.80
2019-01-17T12:26:52.967Z,7.77
2019-01-17T12:29:40.707Z,11.07
2019-01-17T12:32:28.464Z,9.13
2019-01-17T12:35:16.301Z,9.63
2019-01-17T12:38:04.052Z,10.00
2019-01-17T12:40:51.866Z,8.30
2019-01-17T12:43:39.682Z,11.97
2019-01-17T12:46:27.452Z,14.40
2019-01-17T12:49:15.192Z,19.17
2019-01-17T12:52:03.000Z,15.13
2019-01-17T12:54:44.030Z,11.30
2019-01-17T12:57:26.598Z,13.20
2019-01-17T13:00:07.860Z,17.23
2019-01-17T13:02:49.168Z,7.47
2019-01-17T13:05:30.098Z,8.03
2019-01-17T13:07:58.545Z,6.67
2019-01-17T13:10:46.312Z,3.43
2019-01-17T13:13:34.099Z,2.57
2019-01-17T13:16:21.841Z,2.53
2019-01-17T13:19:17.085Z,5.40
2019-01-17T13:22:04.846Z,4.57
2019-01-17T13:24:52.617Z,6.87
2019-01-17T13:27:40.597Z,6.60
2019-01-17T13:30:28.369Z,6.33
2019-01-17T13:33:16.388Z,4.33
2019-01-17T13:38:59.477Z,7.30
2019-01-17T13:41:47.233Z,7.60
2019-01-17T13:44:47.332Z,6.90
2019-01-17T13:47:24.525Z,5.37
2019-01-17T13:50:12.875Z,4.63
2019-01-17T13:53:00.612Z,4.20
2019-01-17T13:55:48.415Z,6.53
2019-01-17T13:58:36.157Z,5.10
2019-01-17T14:01:23.921Z,5.73
2019-01-17T14:04:11.756Z,6.83
2019-01-17T14:06:59.527Z,5.57
2019-01-17T14:09:47.513Z,6.33
2019-01-17T14:12:35.301Z,5.97
2019-01-17T14:15:43.811Z,7.53
2019-01-17T14:18:31.561Z,5.87
2019-01-17T14:21:25.314Z,7.40
2019-01-17T14:24:08.817Z,5.77
2019-01-17T14:26:56.662Z,4.73
2019-01-17T14:29:44.458Z,5.83
2019-01-17T14:32:32.214Z,7.87
2019-01-17T14:35:20.072Z,6.30
2019-01-17T14:38:07.884Z,7.73
2019-01-17T14:43:51.793Z,5.67
2019-01-17T14:46:39.614Z,5.20
2019-01-17T14:49:27.462Z,4.37
2019-01-17T14:52:15.229Z,7.77
2019-01-17T14:55:03.059Z,10.13
2019-01-17T14:57:43.572Z,8.53
2019-01-17T15:00:24.212Z,9.23
2019-01-17T15:03:05.133Z,10.00
2019-01-17T15:05:46.048Z,6.57
2019-01-17T15:08:26.637Z,4.20
2019-01-17T15:11:07.329Z,8.13
2019-01-17T15:13:48.052Z,6.17
2019-01-17T15:16:28.784Z,6.27
2019-01-17T15:19:10.068Z,5.80
2019-01-17T15:21:50.649Z,7.73
2019-01-17T15:24:31.765Z,4.97
2019-01-17T15:27:12.434Z,7.10
2019-01-17T15:29:53.367Z,6.23
2019-01-17T15:32:34.086Z,4.63
2019-01-17T15:35:15.062Z,5.27
2019-01-17T15:37:55.631Z,2.97
2019-01-17T15:40:36.586Z,6.07
2019-01-17T15:43:17.264Z,7.47
2019-01-17T15:45:58.157Z,8.33
2019-01-17T15:48:26.596Z,7.23
2019-01-17T15:51:33.607Z,8.07
2019-01-17T15:54:23.307Z,4.80
2019-01-17T15:57:03.916Z,8.67
2019-01-17T15:59:47.175Z,6.47
2019-01-17T16:02:27.683Z,6.33
2019-01-17T16:05:08.354Z,8.20
2019-01-17T16:07:49.164Z,9.23
2019-01-17T16:10:29.775Z,6.50
2019-01-17T16:13:10.483Z,8.50
2019-01-17T16:15:50.904Z,7.43
2019-01-17T16:18:32.154Z,10.20
2019-01-17T16:21:12.640Z,8.67
2019-01-17T16:23:53.637Z,9.57
2019-01-17T16:26:34.119Z,6.77
2019-01-17T16:29:14.607Z,9.90
2019-01-17T16:31:55.484Z,7.77
2019-01-17T16:34:36.486Z,5.73
2019-01-17T16:37:17.487Z,4.57
2019-01-17T16:39:58.302Z,5.53
2019-01-17T16:42:39.276Z,5.70
2019-01-17T16:45:27.152Z,5.17
2019-01-17T16:48:14.914Z,4.10
2019-01-17T16:51:02.657Z,2.17
2019-01-17T16:53:50.837Z,4.73
2019-01-17T16:56:38.613Z,3.07
2019-01-17T16:59:26.383Z,2.40
2019-01-17T17:02:14.193Z,3.87
2019-01-17T17:05:01.953Z,2.77
2019-01-17T17:07:49.758Z,3.77
2019-01-17T17:10:37.861Z,4.60
2019-01-17T17:13:25.662Z,3.20
2019-01-17T17:16:13.437Z,4.03
2019-01-17T17:19:01.255Z,5.67
2019-01-17T17:21:44.623Z,6.03
2019-01-17T17:24:26.587Z,7.20
2019-01-17T17:27:07.369Z,5.17
2019-01-17T17:29:48.539Z,8.73
2019-01-17T17:32:29.521Z,7.03
2019-01-17T17:35:10.318Z,5.47
2019-01-17T17:37:51.191Z,5.13
2019-01-17T17:40:32.102Z,5.83
2019-01-17T17:43:12.276Z,3.63
2019-01-17T17:45:53.132Z,4.13
2019-01-17T17:48:36.236Z,2.70
2019-01-17T17:51:17.068Z,5.47
2019-01-17T17:53:58.045Z,5.70
2019-01-17T17:56:38.748Z,3.67
2019-01-17T17:59:25.136Z,4.23
2019-01-17T18:02:06.782Z,4.83
2019-01-17T18:04:47.068Z,2.23
2019-01-17T18:07:15.496Z,2.50
2019-01-17T18:10:23.975Z,3.80
2019-01-17T18:13:11.788Z,3.43
2019-01-17T18:15:59.535Z,1.63
2019-01-17T18:18:47.505Z,1.20
2019-01-17T18:21:35.304Z,1.20
2019-01-17T18:24:23.044Z,1.57
2019-01-17T18:27:10.907Z,2.30
2019-01-17T18:29:58.913Z,1.27
2019-01-17T18:32:46.748Z,1.63
2019-01-17T18:35:27.219Z,0.80
2019-01-17T18:38:08.188Z,0.83
2019-01-17T18:40:36.628Z,2.73
2019-01-17T18:43:24.417Z,0.70
2019-01-17T18:46:12.154Z,1.33
2019-01-17T18:48:40.572Z,1.83
2019-01-17T18:51:28.456Z,1.13
2019-01-17T18:54:16.353Z,1.10
2019-01-17T18:57:04.311Z,2.17
2019-01-17T18:59:52.113Z,2.43
2019-01-17T19:02:40.167Z,2.40
2019-01-17T19:05:28.225Z,2.97
2019-01-17T19:07:56.637Z,2.73
2019-01-17T19:10:44.482Z,4.23
2019-01-17T19:13:32.269Z,4.77
2019-01-17T19:16:20.048Z,4.10
2019-01-17T19:19:07.965Z,3.30
2019-01-17T19:21:55.922Z,3.37
2019-01-17T19:24:24.493Z,4.27
2019-01-17T19:27:12.302Z,2.73
2019-01-17T19:30:00.238Z,1.97
2019-01-17T19:32:48.223Z,2.53
2019-01-17T19:35:35.945Z,0.80
2019-01-17T19:38:23.833Z,1.60
2019-01-17T19:41:11.611Z,2.03
2019-01-17T19:43:40.159Z,3.73
2019-01-17T19:46:28.013Z,1.80
2019-01-17T19:49:15.814Z,4.93
2019-01-17T19:55:12.221Z,4.27
2019-01-17T19:57:59.989Z,2.73
2019-01-17T20:00:47.995Z,4.77
2019-01-17T20:03:28.696Z,3.87
2019-01-17T20:06:09.926Z,4.90
2019-01-17T20:08:50.786Z,7.60
2019-01-17T20:11:31.553Z,6.23
2019-01-17T20:14:12.650Z,6.20
2019-01-17T20:16:53.283Z,5.40
2019-01-17T20:19:33.892Z,7.07
2019-01-17T20:22:14.538Z,8.90
2019-01-17T20:24:55.329Z,7.43
2019-01-17T20:27:36.238Z,3.23
2019-01-17T20:30:44.807Z,1.43
2019-01-17T20:33:32.644Z,4.03
2019-01-17T20:36:20.445Z,2.87
2019-01-17T20:39:08.672Z,4.70
2019-01-17T20:41:56.409Z,2.93
2019-01-17T20:44:44.181Z,3.57
2019-01-17T20:47:31.933Z,2.10
2019-01-17T20:50:40.437Z,1.40
2019-01-17T20:53:28.224Z,3.57
2019-01-17T20:56:08.638Z,1.57
2019-01-17T20:58:49.123Z,3.77
2019-01-17T21:01:29.878Z,2.47
2019-01-17T21:04:10.918Z,1.10
2019-01-17T21:06:54.666Z,1.70
2019-01-17T21:09:37.994Z,1.27
2019-01-17T21:12:18.986Z,2.87
2019-01-17T21:14:59.202Z,1.57
2019-01-17T21:20:41.543Z,3.77
2019-01-17T21:23:22.471Z,1.20
2019-01-17T21:26:03.162Z,0.80
2019-01-17T21:28:49.053Z,1.53
2019-01-17T21:31:26.628Z,1.77
2019-01-17T21:34:07.114Z,2.03
2019-01-17T21:36:47.989Z,0.80
2019-01-17T21:39:28.234Z,3.00
2019-01-17T21:42:09.194Z,3.10
2019-01-17T21:44:50.153Z,1.00
2019-01-17T21:47:30.917Z,3.00
2019-01-17T21:50:11.458Z,1.73
2019-01-17T21:52:52.094Z,2.37
2019-01-17T21:55:33.082Z,1.97
2019-01-17T21:58:13.696Z,1.37
2019-01-17T22:00:54.381Z,1.30
2019-01-17T22:03:35.144Z,0.90
2019-01-17T22:06:15.775Z,1.20
2019-01-17T22:08:56.772Z,2.70
2019-01-17T22:11:37.102Z,1.70
2019-01-17T22:14:19.224Z,2.67
2019-01-17T22:17:00.427Z,2.47
2019-01-17T22:19:40.814Z,3.53
2019-01-17T22:22:21.771Z,3.10
2019-01-17T22:25:02.784Z,1.67
2019-01-17T22:27:43.435Z,3.73
2019-01-17T22:30:23.957Z,1.93
2019-01-17T22:33:05.057Z,2.07
2019-01-17T22:35:45.855Z,3.57
2019-01-17T22:38:26.085Z,4.03
2019-01-17T22:41:06.945Z,2.47
2019-01-17T22:43:47.592Z,3.77
2019-01-17T22:46:28.636Z,3.73
2019-01-17T22:49:09.200Z,3.60
2019-01-17T22:51:49.991Z,2.37
2019-01-17T22:54:31.015Z,2.87
2019-01-17T22:57:11.465Z,5.23
2019-01-17T22:59:52.169Z,2.83
2019-01-17T23:02:32.748Z,2.33
2019-01-17T23:05:13.709Z,2.00
2019-01-17T23:07:55.080Z,8.87
2019-01-17T23:10:35.515Z,1.30
2019-01-17T23:13:16.113Z,3.73
2019-01-17T23:15:57.424Z,3.50
2019-01-17T23:18:38.496Z,2.03
2019-01-17T23:21:19.179Z,2.87
2019-01-17T23:24:02.560Z,3.17
2019-01-17T23:26:42.841Z,3.37
2019-01-17T23:29:23.396Z,1.87
2019-01-17T23:32:04.043Z,3.17
2019-01-17T23:34:45.052Z,2.70
2019-01-17T23:37:26.387Z,3.27
2019-01-17T23:40:07.205Z,3.83
2019-01-17T23:42:52.487Z,6.23
2019-01-17T23:45:33.492Z,2.97
2019-01-17T23:48:14.191Z,3.37
2019-01-17T23:50:54.851Z,3.30
2019-01-17T23:53:35.933Z,2.37
2019-01-17T23:56:16.936Z,4.20
2019-01-17T23:58:57.713Z,4.50
